sensor_id;sensor_type;location;lat;lon;timestamp;pressure;altitude;pressure_sealevel;temperature;humidity
3434;BME280;1730;41.932;25.548;2023-04-06T00:01:34;98841.53;;;6.25;100.00
3434;BME280;1730;41.932;25.548;2023-04-06T00:03:59;98757.88;;;5.64;100.00
3434;BME280;1730;41.932;25.548;2023-04-06T00:06:25;98841.94;;;6.11;100.00
3434;BME280;1730;41.932;25.548;2023-04-06T00:08:50;98702.63;;;5.25;100.00
3434;BME280;1730;41.932;25.548;2023-04-06T00:11:16;98850.25;;;6.18;100.00
3434;BME280;1730;41.932;25.548;2023-04-06T00:13:42;98812.87;;;5.87;100.00
3434;BME280;1730;41.932;25.548;2023-04-06T00:16:07;98842.66;;;6.13;100.00
3434;BME280;1730;41.932;25.548;2023-04-06T00:18:33;98796.53;;;5.91;100.00
3434;BME280;1730;41.932;25.548;2023-04-06T00:20:59;98779.75;;;5.79;100.00
3434;BME280;1730;41.932;25.548;2023-04-06T00:23:24;98827.84;;;6.28;100.00
3434;BME280;1730;41.932;25.548;2023-04-06T00:25:50;98795.06;;;5.77;100.00
3434;BME280;1730;41.932;25.548;2023-04-06T00:28:16;98820.75;;;5.89;100.00
3434;BME280;1730;41.932;25.548;2023-04-06T00:30:41;98823.75;;;5.96;100.00
3434;BME280;1730;41.932;25.548;2023-04-06T00:33:07;98814.88;;;6.14;100.00
3434;BME280;1730;41.932;25.548;2023-04-06T00:35:33;98817.53;;;5.95;100.00
3434;BME280;1730;41.932;25.548;2023-04-06T00:37:58;98811.87;;;5.88;100.00
3434;BME280;1730;41.932;25.548;2023-04-06T00:40:24;98422.22;;;3.67;100.00
3434;BME280;1730;41.932;25.548;2023-04-06T00:42:50;98801.75;;;6.02;100.00
3434;BME280;1730;41.932;25.548;2023-04-06T00:45:15;98806.13;;;5.93;100.00
3434;BME280;1730;41.932;25.548;2023-04-06T00:47:41;98796.19;;;5.84;100.00
3434;BME280;1730;41.932;25.548;2023-04-06T00:50:07;98641.50;;;5.01;100.00
3434;BME280;1730;41.932;25.548;2023-04-06T00:52:34;98756.59;;;5.59;100.00
3434;BME280;1730;41.932;25.548;2023-04-06T00:55:00;98797.06;;;5.84;100.00
3434;BME280;1730;41.932;25.548;2023-04-06T00:57:25;98791.13;;;5.81;100.00
3434;BME280;1730;41.932;25.548;2023-04-06T00:59:51;98528.22;;;4.14;100.00
3434;BME280;1730;41.932;25.548;2023-04-06T01:02:17;98817.81;;;5.62;100.00
3434;BME280;1730;41.932;25.548;2023-04-06T01:04:43;98456.00;;;3.66;100.00
3434;BME280;1730;41.932;25.548;2023-04-06T01:07:09;98652.47;;;4.98;100.00
3434;BME280;1730;41.932;25.548;2023-04-06T01:09:35;98666.81;;;4.97;100.00
3434;BME280;1730;41.932;25.548;2023-04-06T01:12:01;98795.41;;;5.93;100.00
3434;BME280;1730;41.932;25.548;2023-04-06T01:14:27;98806.13;;;5.93;100.00
3434;BME280;1730;41.932;25.548;2023-04-06T01:16:53;98466.19;;;4.12;100.00
3434;BME280;1730;41.932;25.548;2023-04-06T01:19:19;98786.03;;;6.18;100.00
3434;BME280;1730;41.932;25.548;2023-04-06T01:21:46;98590.87;;;4.90;100.00
3434;BME280;1730;41.932;25.548;2023-04-06T01:24:12;98776.28;;;6.07;100.00
3434;BME280;1730;41.932;25.548;2023-04-06T01:26:38;98625.41;;;5.22;100.00
3434;BME280;1730;41.932;25.548;2023-04-06T01:29:04;98783.06;;;6.21;100.00
3434;BME280;1730;41.932;25.548;2023-04-06T01:31:29;98718.25;;;5.98;100.00
3434;BME280;1730;41.932;25.548;2023-04-06T01:33:55;98618.38;;;5.40;100.00
3434;BME280;1730;41.932;25.548;2023-04-06T01:36:21;98777.41;;;6.33;100.00
3434;BME280;1730;41.932;25.548;2023-04-06T01:38:47;98771.22;;;6.33;100.00
3434;BME280;1730;41.932;25.548;2023-04-06T01:41:12;98768.84;;;6.49;100.00
3434;BME280;1730;41.932;25.548;2023-04-06T01:43:38;98765.72;;;6.54;100.00
3434;BME280;1730;41.932;25.548;2023-04-06T01:46:04;98768.25;;;6.55;100.00
3434;BME280;1730;41.932;25.548;2023-04-06T01:48:30;98770.91;;;6.65;100.00
3434;BME280;1730;41.932;25.548;2023-04-06T01:50:55;98769.66;;;6.59;100.00
3434;BME280;1730;41.932;25.548;2023-04-06T01:53:23;98636.31;;;5.87;100.00
3434;BME280;1730;41.932;25.548;2023-04-06T01:55:48;98740.19;;;6.59;100.00
3434;BME280;1730;41.932;25.548;2023-04-06T01:58:14;98485.19;;;4.78;100.00
3434;BME280;1730;41.932;25.548;2023-04-06T02:00:40;98752.47;;;6.33;100.00
3434;BME280;1730;41.932;25.548;2023-04-06T02:03:05;98493.44;;;4.75;100.00
3434;BME280;1730;41.932;25.548;2023-04-06T02:05:32;98753.88;;;6.66;100.00
3434;BME280;1730;41.932;25.548;2023-04-06T02:08:06;98748.41;;;6.29;100.00
3434;BME280;1730;41.932;25.548;2023-04-06T02:10:33;98741.22;;;6.01;100.00
3434;BME280;1730;41.932;25.548;2023-04-06T02:13:00;98748.00;;;6.05;100.00
3434;BME280;1730;41.932;25.548;2023-04-06T02:15:26;98223.25;;;2.97;100.00
3434;BME280;1730;41.932;25.548;2023-04-06T02:17:52;98751.78;;;6.12;100.00
3434;BME280;1730;41.932;25.548;2023-04-06T02:20:18;98738.97;;;6.15;100.00
3434;BME280;1730;41.932;25.548;2023-04-06T02:22:43;98747.12;;;5.95;100.00
3434;BME280;1730;41.932;25.548;2023-04-06T02:25:09;98745.56;;;6.11;100.00
3434;BME280;1730;41.932;25.548;2023-04-06T02:27:35;98620.22;;;5.39;100.00
3434;BME280;1730;41.932;25.548;2023-04-06T02:30:02;98740.53;;;6.18;100.00
3434;BME280;1730;41.932;25.548;2023-04-06T02:32:28;98745.72;;;6.29;100.00
3434;BME280;1730;41.932;25.548;2023-04-06T02:34:53;98593.75;;;5.17;100.00
3434;BME280;1730;41.932;25.548;2023-04-06T02:37:19;98738.13;;;6.05;100.00
3434;BME280;1730;41.932;25.548;2023-04-06T02:39:44;98611.75;;;5.15;100.00
3434;BME280;1730;41.932;25.548;2023-04-06T02:42:10;98729.34;;;5.74;100.00
3434;BME280;1730;41.932;25.548;2023-04-06T02:44:35;98627.34;;;5.10;100.00
3434;BME280;1730;41.932;25.548;2023-04-06T02:47:01;98592.88;;;4.97;100.00
3434;BME280;1730;41.932;25.548;2023-04-06T02:49:26;98745.53;;;5.82;100.00
3434;BME280;1730;41.932;25.548;2023-04-06T02:51:52;98575.56;;;4.82;100.00
3434;BME280;1730;41.932;25.548;2023-04-06T02:54:18;98444.53;;;4.05;100.00
3434;BME280;1730;41.932;25.548;2023-04-06T02:56:44;98738.69;;;5.99;100.00
3434;BME280;1730;41.932;25.548;2023-04-06T02:59:09;98738.53;;;5.91;100.00
3434;BME280;1730;41.932;25.548;2023-04-06T03:01:35;98736.00;;;5.89;100.00
3434;BME280;1730;41.932;25.548;2023-04-06T03:04:01;98557.84;;;5.00;100.00
3434;BME280;1730;41.932;25.548;2023-04-06T03:06:27;98656.38;;;5.53;100.00
3434;BME280;1730;41.932;25.548;2023-04-06T03:08:52;98408.28;;;3.93;100.00
3434;BME280;1730;41.932;25.548;2023-04-06T03:11:18;98735.94;;;5.80;100.00
3434;BME280;1730;41.932;25.548;2023-04-06T03:13:44;98740.19;;;5.82;100.00
3434;BME280;1730;41.932;25.548;2023-04-06T03:16:10;98732.69;;;5.76;100.00
3434;BME280;1730;41.932;25.548;2023-04-06T03:18:35;98709.12;;;5.41;100.00
3434;BME280;1730;41.932;25.548;2023-04-06T03:21:02;98736.06;;;5.69;100.00
3434;BME280;1730;41.932;25.548;2023-04-06T03:23:28;98743.94;;;5.61;100.00
3434;BME280;1730;41.932;25.548;2023-04-06T03:25:53;98700.41;;;5.30;100.00
3434;BME280;1730;41.932;25.548;2023-04-06T03:28:19;98550.41;;;4.45;100.00
3434;BME280;1730;41.932;25.548;2023-04-06T03:30:45;98745.63;;;5.52;100.00
3434;BME280;1730;41.932;25.548;2023-04-06T03:33:10;98611.66;;;4.77;100.00
3434;BME280;1730;41.932;25.548;2023-04-06T03:35:36;98633.25;;;5.04;100.00
3434;BME280;1730;41.932;25.548;2023-04-06T03:38:03;98621.56;;;4.95;100.00
3434;BME280;1730;41.932;25.548;2023-04-06T03:40:29;98749.16;;;5.53;100.00
3434;BME280;1730;41.932;25.548;2023-04-06T03:42:55;98748.47;;;5.70;100.00
3434;BME280;1730;41.932;25.548;2023-04-06T03:45:20;98747.22;;;5.74;100.00
3434;BME280;1730;41.932;25.548;2023-04-06T03:47:46;98770.28;;;5.75;100.00
3434;BME280;1730;41.932;25.548;2023-04-06T03:50:11;98745.22;;;5.57;100.00
3434;BME280;1730;41.932;25.548;2023-04-06T03:52:37;98752.66;;;5.63;100.00
3434;BME280;1730;41.932;25.548;2023-04-06T03:55:03;98623.63;;;4.82;100.00
3434;BME280;1730;41.932;25.548;2023-04-06T03:57:29;98745.03;;;5.49;100.00
3434;BME280;1730;41.932;25.548;2023-04-06T03:59:56;98754.03;;;5.48;100.00
3434;BME280;1730;41.932;25.548;2023-04-06T04:02:21;98399.25;;;3.45;100.00
3434;BME280;1730;41.932;25.548;2023-04-06T04:04:47;98675.53;;;4.99;100.00
3434;BME280;1730;41.932;25.548;2023-04-06T04:07:12;98750.66;;;5.45;100.00
3434;BME280;1730;41.932;25.548;2023-04-06T04:09:38;98585.09;;;4.45;100.00
3434;BME280;1730;41.932;25.548;2023-04-06T04:12:03;98756.56;;;5.49;100.00
3434;BME280;1730;41.932;25.548;2023-04-06T04:14:29;98377.37;;;3.21;100.00
3434;BME280;1730;41.932;25.548;2023-04-06T04:16:55;98388.09;;;3.30;100.00
3434;BME280;1730;41.932;25.548;2023-04-06T04:19:20;98754.28;;;5.44;100.00
3434;BME280;1730;41.932;25.548;2023-04-06T04:21:46;98751.06;;;5.41;100.00
3434;BME280;1730;41.932;25.548;2023-04-06T04:24:12;98754.47;;;5.43;100.00
3434;BME280;1730;41.932;25.548;2023-04-06T04:26:38;98692.63;;;5.17;100.00
3434;BME280;1730;41.932;25.548;2023-04-06T04:29:05;98752.78;;;5.52;100.00
3434;BME280;1730;41.932;25.548;2023-04-06T04:31:30;98512.50;;;4.11;100.00
3434;BME280;1730;41.932;25.548;2023-04-06T04:33:57;98762.97;;;5.77;100.00
3434;BME280;1730;41.932;25.548;2023-04-06T04:36:22;98450.38;;;3.90;100.00
3434;BME280;1730;41.932;25.548;2023-04-06T04:38:49;98757.09;;;5.93;100.00
3434;BME280;1730;41.932;25.548;2023-04-06T04:41:15;98750.00;;;5.63;100.00
3434;BME280;1730;41.932;25.548;2023-04-06T04:43:40;98318.31;;;3.06;100.00
3434;BME280;1730;41.932;25.548;2023-04-06T04:46:06;98755.38;;;5.82;100.00
3434;BME280;1730;41.932;25.548;2023-04-06T04:48:32;98677.31;;;5.29;100.00
3434;BME280;1730;41.932;25.548;2023-04-06T04:50:58;98485.09;;;4.09;100.00
3434;BME280;1730;41.932;25.548;2023-04-06T04:53:23;98760.88;;;5.80;100.00
3434;BME280;1730;41.932;25.548;2023-04-06T04:55:49;98417.78;;;3.77;100.00
3434;BME280;1730;41.932;25.548;2023-04-06T04:58:14;98594.41;;;4.90;100.00
3434;BME280;1730;41.932;25.548;2023-04-06T05:00:48;98767.25;;;5.99;100.00
3434;BME280;1730;41.932;25.548;2023-04-06T05:03:20;98500.28;;;4.58;100.00
3434;BME280;1730;41.932;25.548;2023-04-06T05:05:47;98753.19;;;6.06;100.00
3434;BME280;1730;41.932;25.548;2023-04-06T05:08:13;98560.56;;;5.20;100.00
3434;BME280;1730;41.932;25.548;2023-04-06T05:10:39;98661.78;;;6.01;100.00
3434;BME280;1730;41.932;25.548;2023-04-06T05:13:05;98759.88;;;6.87;100.00
3434;BME280;1730;41.932;25.548;2023-04-06T05:15:31;98675.00;;;6.31;100.00
3434;BME280;1730;41.932;25.548;2023-04-06T05:17:57;98404.62;;;4.73;100.00
3434;BME280;1730;41.932;25.548;2023-04-06T05:20:22;98751.72;;;6.79;100.00
3434;BME280;1730;41.932;25.548;2023-04-06T05:22:49;98753.66;;;6.96;100.00
3434;BME280;1730;41.932;25.548;2023-04-06T05:25:17;98751.31;;;7.48;100.00
3434;BME280;1730;41.932;25.548;2023-04-06T05:27:43;98697.78;;;7.01;100.00
3434;BME280;1730;41.932;25.548;2023-04-06T05:30:09;98629.53;;;6.59;100.00
3434;BME280;1730;41.932;25.548;2023-04-06T05:32:34;98518.00;;;6.40;100.00
3434;BME280;1730;41.932;25.548;2023-04-06T05:35:00;98743.97;;;7.95;100.00
3434;BME280;1730;41.932;25.548;2023-04-06T05:37:26;98653.94;;;7.20;100.00
3434;BME280;1730;41.932;25.548;2023-04-06T05:39:51;98748.94;;;7.72;100.00
3434;BME280;1730;41.932;25.548;2023-04-06T05:42:17;98589.78;;;6.91;100.00
3434;BME280;1730;41.932;25.548;2023-04-06T05:44:42;98482.56;;;6.19;100.00
3434;BME280;1730;41.932;25.548;2023-04-06T05:47:08;98647.50;;;6.76;100.00
3434;BME280;1730;41.932;25.548;2023-04-06T05:49:33;98746.66;;;7.50;100.00
3434;BME280;1730;41.932;25.548;2023-04-06T05:52:00;98636.69;;;6.68;100.00
3434;BME280;1730;41.932;25.548;2023-04-06T05:54:25;98471.56;;;5.95;100.00
3434;BME280;1730;41.932;25.548;2023-04-06T05:56:51;98347.31;;;5.33;100.00
3434;BME280;1730;41.932;25.548;2023-04-06T05:59:16;98753.00;;;7.76;100.00
3434;BME280;1730;41.932;25.548;2023-04-06T06:01:43;98493.03;;;6.12;100.00
3434;BME280;1730;41.932;25.548;2023-04-06T06:04:09;98737.06;;;7.47;100.00
3434;BME280;1730;41.932;25.548;2023-04-06T06:06:34;98747.88;;;7.55;100.00
3434;BME280;1730;41.932;25.548;2023-04-06T06:09:00;98718.19;;;7.39;100.00
3434;BME280;1730;41.932;25.548;2023-04-06T06:11:27;98767.41;;;7.48;100.00
3434;BME280;1730;41.932;25.548;2023-04-06T06:13:53;98734.19;;;7.58;100.00
3434;BME280;1730;41.932;25.548;2023-04-06T06:16:19;98717.31;;;7.48;100.00
3434;BME280;1730;41.932;25.548;2023-04-06T06:18:44;98657.31;;;7.49;100.00
3434;BME280;1730;41.932;25.548;2023-04-06T06:21:10;98733.63;;;8.00;100.00
3434;BME280;1730;41.932;25.548;2023-04-06T06:23:37;98701.97;;;7.41;100.00
3434;BME280;1730;41.932;25.548;2023-04-06T06:26:03;98754.53;;;7.51;100.00
3434;BME280;1730;41.932;25.548;2023-04-06T06:28:30;98743.53;;;7.54;100.00
3434;BME280;1730;41.932;25.548;2023-04-06T06:30:55;98726.31;;;7.20;100.00
3434;BME280;1730;41.932;25.548;2023-04-06T06:33:21;98755.72;;;7.94;100.00
3434;BME280;1730;41.932;25.548;2023-04-06T06:35:46;98744.16;;;8.11;100.00
3434;BME280;1730;41.932;25.548;2023-04-06T06:38:12;98589.09;;;7.52;100.00
3434;BME280;1730;41.932;25.548;2023-04-06T06:40:38;98773.03;;;9.14;100.00
3434;BME280;1730;41.932;25.548;2023-04-06T06:43:03;98618.16;;;8.35;100.00
3434;BME280;1730;41.932;25.548;2023-04-06T06:45:29;98741.16;;;9.27;100.00
3434;BME280;1730;41.932;25.548;2023-04-06T06:47:55;98751.37;;;9.15;100.00
3434;BME280;1730;41.932;25.548;2023-04-06T06:50:20;98663.66;;;8.88;100.00
3434;BME280;1730;41.932;25.548;2023-04-06T06:52:46;98629.06;;;8.93;100.00
3434;BME280;1730;41.932;25.548;2023-04-06T06:55:11;98584.09;;;8.70;100.00
3434;BME280;1730;41.932;25.548;2023-04-06T06:57:37;98751.31;;;9.33;100.00
3434;BME280;1730;41.932;25.548;2023-04-06T07:00:04;98592.00;;;8.71;100.00
3434;BME280;1730;41.932;25.548;2023-04-06T07:02:30;98745.78;;;9.34;100.00
3434;BME280;1730;41.932;25.548;2023-04-06T07:04:56;98751.25;;;9.59;100.00
3434;BME280;1730;41.932;25.548;2023-04-06T07:07:22;98613.06;;;8.84;100.00
3434;BME280;1730;41.932;25.548;2023-04-06T07:09:47;98738.81;;;9.66;100.00
3434;BME280;1730;41.932;25.548;2023-04-06T07:12:13;98729.00;;;10.07;100.00
3434;BME280;1730;41.932;25.548;2023-04-06T07:14:38;98751.16;;;9.84;100.00
3434;BME280;1730;41.932;25.548;2023-04-06T07:17:04;98747.69;;;10.00;100.00
3434;BME280;1730;41.932;25.548;2023-04-06T07:19:30;98682.72;;;9.37;100.00
3434;BME280;1730;41.932;25.548;2023-04-06T07:21:56;98660.03;;;9.05;100.00
3434;BME280;1730;41.932;25.548;2023-04-06T07:24:21;98635.78;;;8.89;100.00
3434;BME280;1730;41.932;25.548;2023-04-06T07:26:48;98713.31;;;9.36;100.00
3434;BME280;1730;41.932;25.548;2023-04-06T07:29:13;98750.00;;;9.45;100.00
3434;BME280;1730;41.932;25.548;2023-04-06T07:31:39;98744.13;;;9.49;100.00
3434;BME280;1730;41.932;25.548;2023-04-06T07:34:06;98701.69;;;9.35;100.00
3434;BME280;1730;41.932;25.548;2023-04-06T07:36:34;98624.72;;;9.00;100.00
3434;BME280;1730;41.932;25.548;2023-04-06T07:39:00;98744.31;;;10.06;100.00
3434;BME280;1730;41.932;25.548;2023-04-06T07:41:25;98724.22;;;9.76;100.00
3434;BME280;1730;41.932;25.548;2023-04-06T07:43:51;98750.50;;;9.82;100.00
3434;BME280;1730;41.932;25.548;2023-04-06T07:46:16;98743.56;;;9.80;100.00
3434;BME280;1730;41.932;25.548;2023-04-06T07:48:42;98745.78;;;9.92;100.00
3434;BME280;1730;41.932;25.548;2023-04-06T07:51:08;98737.56;;;9.94;100.00
3434;BME280;1730;41.932;25.548;2023-04-06T07:53:34;98735.59;;;10.12;100.00
3434;BME280;1730;41.932;25.548;2023-04-06T07:55:59;98658.75;;;9.68;100.00
3434;BME280;1730;41.932;25.548;2023-04-06T07:58:25;98729.53;;;10.18;100.00
3434;BME280;1730;41.932;25.548;2023-04-06T08:00:51;98727.53;;;10.20;99.34
3434;BME280;1730;41.932;25.548;2023-04-06T08:03:17;98619.22;;;9.60;99.73
3434;BME280;1730;41.932;25.548;2023-04-06T08:05:42;98563.38;;;9.04;98.45
3434;BME280;1730;41.932;25.548;2023-04-06T08:08:08;98461.63;;;8.51;98.67
3434;BME280;1730;41.932;25.548;2023-04-06T08:10:34;98723.84;;;10.37;100.00
3434;BME280;1730;41.932;25.548;2023-04-06T08:13:00;98564.81;;;9.32;97.14
3434;BME280;1730;41.932;25.548;2023-04-06T08:15:26;98720.47;;;10.60;99.73
3434;BME280;1730;41.932;25.548;2023-04-06T08:17:51;98718.09;;;10.81;96.52
3434;BME280;1730;41.932;25.548;2023-04-06T08:20:17;98705.66;;;10.64;99.27
3434;BME280;1730;41.932;25.548;2023-04-06T08:22:43;98711.38;;;10.69;95.53
3434;BME280;1730;41.932;25.548;2023-04-06T08:25:09;98708.50;;;10.78;95.71
3434;BME280;1730;41.932;25.548;2023-04-06T08:27:34;98537.94;;;9.89;95.65
3434;BME280;1730;41.932;25.548;2023-04-06T08:30:00;98706.09;;;11.08;96.48
3434;BME280;1730;41.932;25.548;2023-04-06T08:32:25;98704.56;;;11.13;93.00
3434;BME280;1730;41.932;25.548;2023-04-06T08:34:54;98695.72;;;11.36;93.50
3434;BME280;1730;41.932;25.548;2023-04-06T08:37:20;98655.38;;;10.95;95.28
3434;BME280;1730;41.932;25.548;2023-04-06T08:39:45;98674.53;;;11.16;96.89
3434;BME280;1730;41.932;25.548;2023-04-06T08:42:18;98689.56;;;11.50;94.28
3434;BME280;1730;41.932;25.548;2023-04-06T08:44:44;98689.28;;;11.45;95.73
3434;BME280;1730;41.932;25.548;2023-04-06T08:47:12;98690.03;;;11.61;93.94
3434;BME280;1730;41.932;25.548;2023-04-06T08:49:38;98674.81;;;11.29;92.52
3434;BME280;1730;41.932;25.548;2023-04-06T08:52:08;98694.84;;;11.43;95.31
3434;BME280;1730;41.932;25.548;2023-04-06T08:54:37;98696.69;;;11.43;94.59
3434;BME280;1730;41.932;25.548;2023-04-06T08:57:06;98701.47;;;11.24;92.57
3434;BME280;1730;41.932;25.548;2023-04-06T08:59:32;98665.50;;;11.32;94.15
3434;BME280;1730;41.932;25.548;2023-04-06T09:01:59;98677.94;;;11.41;88.88
3434;BME280;1730;41.932;25.548;2023-04-06T09:04:26;98496.00;;;10.19;92.97
3434;BME280;1730;41.932;25.548;2023-04-06T09:06:52;98640.41;;;11.23;91.21
3434;BME280;1730;41.932;25.548;2023-04-06T09:09:18;98683.22;;;11.73;94.99
3434;BME280;1730;41.932;25.548;2023-04-06T09:11:48;98682.06;;;11.99;96.11
3434;BME280;1730;41.932;25.548;2023-04-06T09:14:15;98683.34;;;11.88;92.67
3434;BME280;1730;41.932;25.548;2023-04-06T09:16:42;98679.97;;;12.09;92.96
3434;BME280;1730;41.932;25.548;2023-04-06T09:19:09;98675.19;;;12.19;90.49
3434;BME280;1730;41.932;25.548;2023-04-06T09:21:35;98413.06;;;10.45;89.92
3434;BME280;1730;41.932;25.548;2023-04-06T09:24:02;98701.00;;;12.22;87.88
3434;BME280;1730;41.932;25.548;2023-04-06T09:26:28;98666.84;;;12.06;86.79
3434;BME280;1730;41.932;25.548;2023-04-06T09:28:55;98532.78;;;11.28;87.30
3434;BME280;1730;41.932;25.548;2023-04-06T09:31:23;98655.66;;;12.46;88.80
3434;BME280;1730;41.932;25.548;2023-04-06T09:33:49;98657.56;;;12.46;82.22
3434;BME280;1730;41.932;25.548;2023-04-06T09:36:14;98656.59;;;12.76;84.23
3434;BME280;1730;41.932;25.548;2023-04-06T09:38:55;98611.50;;;12.54;81.80
3434;BME280;1730;41.932;25.548;2023-04-06T09:41:35;98610.84;;;12.52;77.56
3434;BME280;1730;41.932;25.548;2023-04-06T09:44:08;98660.72;;;13.31;78.27
3434;BME280;1730;41.932;25.548;2023-04-06T09:46:41;98590.09;;;12.15;79.30
3434;BME280;1730;41.932;25.548;2023-04-06T09:49:08;98651.22;;;12.68;82.24
3434;BME280;1730;41.932;25.548;2023-04-06T09:51:45;98649.94;;;12.64;83.05
3434;BME280;1730;41.932;25.548;2023-04-06T09:54:17;98629.81;;;12.96;80.58
3434;BME280;1730;41.932;25.548;2023-04-06T09:56:47;98638.72;;;13.70;75.60
3434;BME280;1730;41.932;25.548;2023-04-06T09:59:18;98644.63;;;13.59;73.38
3434;BME280;1730;41.932;25.548;2023-04-06T10:01:46;98643.00;;;13.28;76.58
3434;BME280;1730;41.932;25.548;2023-04-06T10:06:59;98643.41;;;13.97;71.84
3434;BME280;1730;41.932;25.548;2023-04-06T10:09:28;98637.69;;;13.71;72.45
3434;BME280;1730;41.932;25.548;2023-04-06T10:12:04;98633.94;;;13.36;73.24
3434;BME280;1730;41.932;25.548;2023-04-06T10:14:32;98545.59;;;13.35;71.11
3434;BME280;1730;41.932;25.548;2023-04-06T10:16:58;98635.66;;;13.73;72.95
3434;BME280;1730;41.932;25.548;2023-04-06T10:19:26;98540.50;;;12.96;73.51
3434;BME280;1730;41.932;25.548;2023-04-06T10:21:55;98637.25;;;13.67;73.79
3434;BME280;1730;41.932;25.548;2023-04-06T10:24:23;98630.97;;;13.67;71.69
3434;BME280;1730;41.932;25.548;2023-04-06T10:27:01;98632.13;;;14.36;66.63
3434;BME280;1730;41.932;25.548;2023-04-06T10:29:27;98629.47;;;14.21;64.63
3434;BME280;1730;41.932;25.548;2023-04-06T10:31:53;98635.94;;;14.41;65.69
3434;BME280;1730;41.932;25.548;2023-04-06T10:34:21;98630.06;;;14.17;62.77
3434;BME280;1730;41.932;25.548;2023-04-06T10:36:47;98479.91;;;13.69;61.73
3434;BME280;1730;41.932;25.548;2023-04-06T10:39:24;98620.91;;;14.67;61.88
3434;BME280;1730;41.932;25.548;2023-04-06T10:41:51;98619.47;;;14.99;62.96
3434;BME280;1730;41.932;25.548;2023-04-06T10:44:24;98617.81;;;14.70;63.61
3434;BME280;1730;41.932;25.548;2023-04-06T10:46:58;98613.09;;;14.57;65.27
3434;BME280;1730;41.932;25.548;2023-04-06T10:49:26;98618.28;;;14.80;64.71
3434;BME280;1730;41.932;25.548;2023-04-06T10:51:54;98569.91;;;14.07;62.91
3434;BME280;1730;41.932;25.548;2023-04-06T10:54:24;98611.13;;;14.72;63.68
3434;BME280;1730;41.932;25.548;2023-04-06T10:56:51;98573.47;;;13.86;64.25
3434;BME280;1730;41.932;25.548;2023-04-06T10:59:22;98601.38;;;14.29;63.32
3434;BME280;1730;41.932;25.548;2023-04-06T11:01:49;98602.94;;;13.95;64.05
3434;BME280;1730;41.932;25.548;2023-04-06T11:04:16;98602.47;;;14.34;63.08
3434;BME280;1730;41.932;25.548;2023-04-06T11:06:46;98587.03;;;13.50;63.44
3434;BME280;1730;41.932;25.548;2023-04-06T11:09:26;98407.91;;;12.96;65.33
3434;BME280;1730;41.932;25.548;2023-04-06T11:11:52;98587.19;;;14.06;63.14
3434;BME280;1730;41.932;25.548;2023-04-06T11:14:18;98589.50;;;13.87;59.59
3434;BME280;1730;41.932;25.548;2023-04-06T11:17:02;98591.03;;;14.18;60.01
3434;BME280;1730;41.932;25.548;2023-04-06T11:19:37;98593.78;;;14.39;61.46
3434;BME280;1730;41.932;25.548;2023-04-06T11:22:07;98593.38;;;14.21;62.93
3434;BME280;1730;41.932;25.548;2023-04-06T11:24:34;98589.44;;;14.23;62.52
3434;BME280;1730;41.932;25.548;2023-04-06T11:27:00;98580.00;;;15.03;59.77
3434;BME280;1730;41.932;25.548;2023-04-06T11:29:30;98580.19;;;14.67;60.38
3434;BME280;1730;41.932;25.548;2023-04-06T11:34:29;98581.31;;;14.79;57.51
3434;BME280;1730;41.932;25.548;2023-04-06T11:36:58;98347.47;;;13.87;58.22
3434;BME280;1730;41.932;25.548;2023-04-06T11:39:25;98436.28;;;15.01;56.35
3434;BME280;1730;41.932;25.548;2023-04-06T11:41:53;98572.56;;;15.65;56.30
3434;BME280;1730;41.932;25.548;2023-04-06T11:44:32;98561.75;;;15.31;59.10
3434;BME280;1730;41.932;25.548;2023-04-06T11:46:58;98557.72;;;15.20;60.43
3434;BME280;1730;41.932;25.548;2023-04-06T11:49:29;98556.69;;;15.21;60.64
3434;BME280;1730;41.932;25.548;2023-04-06T11:51:57;98556.22;;;15.11;59.49
3434;BME280;1730;41.932;25.548;2023-04-06T11:54:36;98559.13;;;14.69;60.91
3434;BME280;1730;41.932;25.548;2023-04-06T11:57:08;98474.28;;;14.54;60.80
3434;BME280;1730;41.932;25.548;2023-04-06T11:59:35;98537.87;;;14.72;61.76
3434;BME280;1730;41.932;25.548;2023-04-06T12:02:02;98550.84;;;15.18;59.79
3434;BME280;1730;41.932;25.548;2023-04-06T12:04:28;98552.31;;;15.81;57.84
3434;BME280;1730;41.932;25.548;2023-04-06T12:06:53;98529.06;;;15.65;57.06
3434;BME280;1730;41.932;25.548;2023-04-06T12:09:19;98545.66;;;15.29;55.85
3434;BME280;1730;41.932;25.548;2023-04-06T12:11:45;98548.97;;;15.79;56.08
3434;BME280;1730;41.932;25.548;2023-04-06T12:14:12;98556.16;;;15.46;55.49
3434;BME280;1730;41.932;25.548;2023-04-06T12:16:38;98550.12;;;15.50;56.78
3434;BME280;1730;41.932;25.548;2023-04-06T12:19:04;98548.50;;;15.15;57.66
3434;BME280;1730;41.932;25.548;2023-04-06T12:21:31;98545.13;;;15.00;58.90
3434;BME280;1730;41.932;25.548;2023-04-06T12:24:00;98554.16;;;15.61;57.87
3434;BME280;1730;41.932;25.548;2023-04-06T12:26:27;98536.22;;;15.99;56.40
3434;BME280;1730;41.932;25.548;2023-04-06T12:28:52;98538.94;;;15.86;55.15
3434;BME280;1730;41.932;25.548;2023-04-06T12:31:22;98534.50;;;15.72;56.39
3434;BME280;1730;41.932;25.548;2023-04-06T12:33:51;98540.94;;;15.51;57.76
3434;BME280;1730;41.932;25.548;2023-04-06T12:36:18;98532.72;;;15.45;58.88
3434;BME280;1730;41.932;25.548;2023-04-06T12:38:48;98527.72;;;15.42;59.02
3434;BME280;1730;41.932;25.548;2023-04-06T12:41:14;98482.84;;;15.52;57.95
3434;BME280;1730;41.932;25.548;2023-04-06T12:43:42;98528.06;;;16.45;55.88
3434;BME280;1730;41.932;25.548;2023-04-06T12:46:08;98520.50;;;15.14;58.67
3434;BME280;1730;41.932;25.548;2023-04-06T12:48:36;98522.16;;;15.56;58.15
3434;BME280;1730;41.932;25.548;2023-04-06T12:51:04;98488.31;;;15.72;58.12
3434;BME280;1730;41.932;25.548;2023-04-06T12:53:32;98509.84;;;15.93;56.17
3434;BME280;1730;41.932;25.548;2023-04-06T12:55:59;98516.22;;;15.46;56.72
3434;BME280;1730;41.932;25.548;2023-04-06T12:58:25;98515.34;;;15.32;58.89
3434;BME280;1730;41.932;25.548;2023-04-06T13:00:55;98509.03;;;15.93;55.73
3434;BME280;1730;41.932;25.548;2023-04-06T13:03:27;98505.88;;;16.15;55.00
3434;BME280;1730;41.932;25.548;2023-04-06T13:05:53;98134.78;;;13.63;54.47
3434;BME280;1730;41.932;25.548;2023-04-06T13:08:19;98504.19;;;16.34;54.62
3434;BME280;1730;41.932;25.548;2023-04-06T13:10:50;98505.84;;;16.48;53.82
3434;BME280;1730;41.932;25.548;2023-04-06T13:13:18;98498.75;;;16.34;52.98